createdAt,value
2018-09-26T00:02:35.318Z,95.70
2018-09-26T00:05:03.939Z,95.80
2018-09-26T00:07:32.433Z,95.90
2018-09-26T00:10:00.916Z,96.00
2018-09-26T00:12:29.517Z,96.00
2018-09-26T00:14:58.071Z,95.90
2018-09-26T00:17:26.677Z,96.10
2018-09-26T00:19:55.238Z,96.20
2018-09-26T00:22:23.737Z,96.20
2018-09-26T00:24:52.366Z,96.00
2018-09-26T00:27:20.991Z,95.90
2018-09-26T00:29:49.510Z,95.80
2018-09-26T00:32:17.996Z,95.70
2018-09-26T00:34:46.507Z,95.50
2018-09-26T00:37:14.980Z,96.00
2018-09-26T00:39:43.466Z,95.70
2018-09-26T00:42:11.956Z,95.70
2018-09-26T00:44:40.555Z,95.70
2018-09-26T00:47:09.037Z,95.60
2018-09-26T00:49:37.716Z,95.80
2018-09-26T00:52:06.210Z,95.80
2018-09-26T00:54:34.774Z,95.80
2018-09-26T00:57:03.362Z,95.90
2018-09-26T00:59:31.852Z,95.80
2018-09-26T01:02:00.398Z,96.00
2018-09-26T01:04:28.910Z,96.10
2018-09-26T01:06:57.449Z,96.00
2018-09-26T01:09:25.891Z,96.00
2018-09-26T01:11:54.387Z,96.00
2018-09-26T01:14:22.799Z,95.80
2018-09-26T01:16:51.270Z,95.80
2018-09-26T01:19:19.710Z,95.90
2018-09-26T01:21:48.209Z,96.10
2018-09-26T01:24:16.666Z,96.10
2018-09-26T01:26:45.556Z,96.20
2018-09-26T01:29:14.011Z,96.20
2018-09-26T01:31:42.446Z,96.30
2018-09-26T01:34:10.996Z,96.30
2018-09-26T01:36:39.473Z,96.30
2018-09-26T01:39:08.898Z,96.40
2018-09-26T01:41:37.645Z,96.90
2018-09-26T01:44:06.252Z,96.60
2018-09-26T01:46:34.710Z,96.50
2018-09-26T01:49:03.260Z,96.50
2018-09-26T01:51:31.771Z,96.60
2018-09-26T01:54:00.286Z,96.70
2018-09-26T01:56:28.780Z,96.70
2018-09-26T01:58:57.267Z,96.80
2018-09-26T02:01:25.725Z,96.80
2018-09-26T02:03:54.188Z,96.60
2018-09-26T02:06:22.685Z,96.80
2018-09-26T02:08:51.159Z,96.80
2018-09-26T02:11:19.621Z,96.80
2018-09-26T02:13:48.085Z,96.90
2018-09-26T02:16:16.590Z,96.90
2018-09-26T02:18:45.253Z,97.00
2018-09-26T02:21:13.757Z,97.30
2018-09-26T02:23:42.331Z,96.90
2018-09-26T02:26:10.907Z,96.80
2018-09-26T02:28:39.587Z,96.60
2018-09-26T02:31:08.090Z,96.70
2018-09-26T02:33:36.521Z,97.00
2018-09-26T02:36:05.039Z,97.00
2018-09-26T02:38:33.557Z,97.20
2018-09-26T02:41:02.041Z,97.20
2018-09-26T02:43:30.570Z,97.40
2018-09-26T02:45:59.001Z,97.40
2018-09-26T02:48:32.611Z,97.40
2018-09-26T02:51:01.040Z,97.30
2018-09-26T02:53:29.505Z,97.50
2018-09-26T02:55:58.015Z,97.50
2018-09-26T02:58:26.494Z,97.60
2018-09-26T03:00:54.986Z,97.70
2018-09-26T03:03:23.433Z,97.70
2018-09-26T03:05:51.927Z,97.80
2018-09-26T03:08:20.353Z,97.90
2018-09-26T03:10:48.892Z,98.00
2018-09-26T03:13:17.371Z,98.10
2018-09-26T03:15:45.843Z,98.30
2018-09-26T03:18:14.514Z,98.20
2018-09-26T03:20:43.188Z,98.30
2018-09-26T03:23:11.678Z,98.30
2018-09-26T03:25:40.171Z,98.30
2018-09-26T03:28:08.631Z,98.20
2018-09-26T03:30:37.219Z,98.10
2018-09-26T03:33:05.886Z,98.20
2018-09-26T03:35:35.232Z,98.00
2018-09-26T03:38:03.919Z,98.00
2018-09-26T03:40:32.390Z,98.00
2018-09-26T03:43:00.806Z,98.00
2018-09-26T03:45:29.278Z,98.00
2018-09-26T03:47:57.712Z,98.00
2018-09-26T03:50:26.175Z,98.10
2018-09-26T03:52:54.687Z,98.10
2018-09-26T03:55:23.209Z,98.20
2018-09-26T03:57:51.833Z,98.30
2018-09-26T04:00:20.285Z,98.30
2018-09-26T04:02:48.719Z,98.30
2018-09-26T04:05:17.221Z,98.30
2018-09-26T04:07:45.654Z,98.40
2018-09-26T04:10:14.143Z,98.40
2018-09-26T04:12:42.714Z,98.50
2018-09-26T04:15:11.164Z,98.40
2018-09-26T04:17:39.597Z,98.40
2018-09-26T04:20:08.202Z,98.40
2018-09-26T04:22:36.770Z,98.40
2018-09-26T04:25:05.416Z,98.70
2018-09-26T04:27:33.948Z,98.40
2018-09-26T04:30:03.024Z,98.40
2018-09-26T04:32:31.511Z,98.50
2018-09-26T04:35:00.059Z,98.50
2018-09-26T04:37:28.748Z,98.50
2018-09-26T04:39:57.545Z,98.60
2018-09-26T04:42:26.016Z,98.50
2018-09-26T04:44:54.778Z,98.60
2018-09-26T04:47:23.301Z,98.80
2018-09-26T04:49:52.302Z,98.80
2018-09-26T04:52:21.015Z,98.90
2018-09-26T04:54:50.432Z,99.00
2018-09-26T04:57:18.919Z,99.10
2018-09-26T04:59:47.374Z,99.00
2018-09-26T05:02:15.846Z,98.90
2018-09-26T05:04:44.257Z,99.30
2018-09-26T05:07:12.756Z,99.00
2018-09-26T05:09:41.444Z,99.00
2018-09-26T05:12:09.925Z,98.90
2018-09-26T05:14:38.386Z,98.90
2018-09-26T05:17:07.000Z,98.80
2018-09-26T05:19:35.443Z,98.90
2018-09-26T05:22:03.897Z,98.80
2018-09-26T05:24:32.343Z,98.90
2018-09-26T05:27:00.801Z,98.50
2018-09-26T05:29:29.284Z,98.80
2018-09-26T05:31:57.755Z,98.80
2018-09-26T05:34:26.229Z,98.80
2018-09-26T05:36:54.714Z,98.80
2018-09-26T05:39:23.158Z,99.10
2018-09-26T05:41:51.681Z,98.70
2018-09-26T05:44:20.066Z,98.70
2018-09-26T05:46:48.531Z,98.60
2018-09-26T05:49:17.003Z,98.60
2018-09-26T05:51:45.482Z,98.50
2018-09-26T05:54:13.946Z,98.30
2018-09-26T05:56:42.422Z,98.30
2018-09-26T05:59:10.862Z,98.00
2018-09-26T06:01:39.330Z,98.00
2018-09-26T06:04:07.776Z,97.80
2018-09-26T06:06:36.284Z,97.50
2018-09-26T06:09:07.759Z,97.20
2018-09-26T06:11:36.297Z,96.80
2018-09-26T06:14:04.810Z,96.60
2018-09-26T06:16:33.241Z,96.40
2018-09-26T06:19:01.759Z,96.20
2018-09-26T06:21:30.157Z,96.20
2018-09-26T06:23:58.665Z,96.00
2018-09-26T06:26:27.091Z,95.70
2018-09-26T06:28:55.537Z,95.60
2018-09-26T06:31:24.008Z,95.50
2018-09-26T06:33:52.439Z,95.50
2018-09-26T06:36:20.909Z,95.30
2018-09-26T06:38:49.321Z,95.30
2018-09-26T06:41:17.949Z,95.30
2018-09-26T06:43:46.483Z,95.20
2018-09-26T06:46:14.964Z,95.10
2018-09-26T06:48:43.405Z,95.10
2018-09-26T06:51:11.968Z,94.90
2018-09-26T06:53:40.480Z,94.70
2018-09-26T06:56:08.983Z,94.50
2018-09-26T06:58:37.421Z,94.20
2018-09-26T07:01:06.010Z,94.10
2018-09-26T07:03:34.455Z,93.60
2018-09-26T07:06:02.914Z,93.60
2018-09-26T07:08:31.360Z,93.70
2018-09-26T07:10:59.850Z,93.20
2018-09-26T07:13:28.329Z,92.80
2018-09-26T07:15:56.798Z,92.60
2018-09-26T07:18:25.233Z,92.60
2018-09-26T07:20:53.677Z,92.60
2018-09-26T07:23:22.151Z,91.70
2018-09-26T07:25:50.600Z,91.70
2018-09-26T07:28:19.050Z,90.10
2018-09-26T07:30:47.533Z,89.20
2018-09-26T07:33:16.008Z,88.80
2018-09-26T07:35:44.434Z,87.10
2018-09-26T07:38:12.890Z,86.30
2018-09-26T07:40:41.334Z,85.30
2018-09-26T07:43:09.790Z,84.40
2018-09-26T07:45:38.302Z,83.80
2018-09-26T07:48:06.868Z,80.00
2018-09-26T07:50:35.397Z,81.20
2018-09-26T07:53:04.002Z,82.50
2018-09-26T07:55:32.436Z,80.60
2018-09-26T07:58:00.940Z,79.10
2018-09-26T08:00:29.421Z,76.90
2018-09-26T08:02:57.864Z,76.60
2018-09-26T08:05:26.395Z,77.30
2018-09-26T08:07:54.899Z,75.50
2018-09-26T08:10:23.570Z,75.70
2018-09-26T08:12:52.069Z,74.90
2018-09-26T08:15:20.540Z,74.40
2018-09-26T08:17:49.005Z,73.90
2018-09-26T08:20:17.439Z,72.50
2018-09-26T08:22:45.922Z,72.70
2018-09-26T08:25:14.373Z,73.10
2018-09-26T08:27:42.842Z,69.40
2018-09-26T08:30:11.312Z,69.40
2018-09-26T08:32:39.795Z,65.40
2018-09-26T08:35:08.281Z,63.70
2018-09-26T08:37:36.790Z,63.20
2018-09-26T08:40:05.391Z,64.20
2018-09-26T08:42:33.911Z,60.90
2018-09-26T08:45:02.362Z,58.70
2018-09-26T08:47:30.870Z,57.20
2018-09-26T08:49:59.363Z,59.70
2018-09-26T08:52:27.852Z,57.30
2018-09-26T08:54:56.365Z,54.80
2018-09-26T08:57:25.204Z,54.90
2018-09-26T08:59:53.658Z,54.30
2018-09-26T09:02:22.096Z,52.80
2018-09-26T09:04:50.593Z,52.20
2018-09-26T09:07:19.123Z,51.60
2018-09-26T09:09:47.651Z,51.00
2018-09-26T09:12:16.100Z,50.50
2018-09-26T09:14:44.941Z,48.90
2018-09-26T09:17:13.287Z,49.20
2018-09-26T09:19:41.838Z,47.50
2018-09-26T09:22:10.279Z,47.80
2018-09-26T09:24:38.743Z,48.20
2018-09-26T09:27:07.185Z,47.70
2018-09-26T09:29:35.650Z,45.90
2018-09-26T09:32:04.081Z,45.20
2018-09-26T09:34:32.547Z,45.70
2018-09-26T09:37:01.021Z,45.40
2018-09-26T09:39:29.671Z,45.20
2018-09-26T09:41:58.139Z,44.50
2018-09-26T09:44:26.669Z,45.50
2018-09-26T09:46:55.145Z,42.90
2018-09-26T09:49:23.806Z,45.00
2018-09-26T09:51:52.477Z,43.70
2018-09-26T09:54:20.986Z,41.80
2018-09-26T09:56:49.458Z,40.50
2018-09-26T09:59:17.931Z,39.30
2018-09-26T10:01:46.390Z,40.40
2018-09-26T10:04:14.849Z,40.50
2018-09-26T10:06:43.294Z,39.70
2018-09-26T10:09:11.771Z,39.40
2018-09-26T10:11:40.201Z,39.50
2018-09-26T10:14:08.729Z,39.40
2018-09-26T10:16:37.162Z,38.60
2018-09-26T10:19:05.956Z,37.90
2018-09-26T10:21:34.444Z,37.00
2018-09-26T10:24:02.966Z,35.30
2018-09-26T10:26:31.466Z,36.80
2018-09-26T10:29:00.095Z,36.00
2018-09-26T10:31:28.517Z,36.80
2018-09-26T10:33:57.001Z,36.20
2018-09-26T10:36:25.439Z,35.70
2018-09-26T10:38:53.925Z,35.40
2018-09-26T10:41:22.367Z,36.40
2018-09-26T10:43:50.842Z,36.50
2018-09-26T10:46:19.256Z,36.40
2018-09-26T10:48:47.765Z,35.30
2018-09-26T10:51:16.220Z,35.00
2018-09-26T10:53:44.766Z,35.00
2018-09-26T10:56:13.238Z,36.20
2018-09-26T10:58:41.806Z,35.00
2018-09-26T11:01:10.299Z,36.80
2018-09-26T11:03:38.839Z,34.50
2018-09-26T11:06:07.597Z,35.00
2018-09-26T11:08:36.166Z,34.50
2018-09-26T11:11:04.638Z,34.20
2018-09-26T11:13:33.134Z,33.90
2018-09-26T11:16:01.620Z,32.70
2018-09-26T11:18:30.475Z,34.90
2018-09-26T11:20:58.904Z,33.10
2018-09-26T11:23:27.397Z,30.80
2018-09-26T11:25:55.853Z,30.20
2018-09-26T11:28:24.394Z,30.70
2018-09-26T11:30:52.944Z,30.30
2018-09-26T11:33:21.518Z,31.50
2018-09-26T11:35:49.962Z,31.60
2018-09-26T11:38:18.444Z,30.20
2018-09-26T11:40:46.896Z,29.90
2018-09-26T11:43:15.321Z,30.10
2018-09-26T11:45:43.822Z,31.00
2018-09-26T11:48:12.356Z,30.50
2018-09-26T11:50:40.893Z,30.60
2018-09-26T11:53:09.410Z,31.50
2018-09-26T11:55:37.931Z,30.00
2018-09-26T11:58:06.684Z,30.40
2018-09-26T12:00:35.137Z,29.40
2018-09-26T12:03:03.776Z,30.00
2018-09-26T12:05:32.270Z,30.00
2018-09-26T12:08:00.727Z,30.40
2018-09-26T12:10:29.246Z,30.60
2018-09-26T12:12:57.695Z,30.80
2018-09-26T12:15:26.191Z,30.80
2018-09-26T12:17:54.686Z,31.30
2018-09-26T12:20:23.287Z,31.40
2018-09-26T12:22:51.791Z,31.60
2018-09-26T12:25:20.491Z,31.90
2018-09-26T12:27:48.985Z,31.60
2018-09-26T12:30:19.559Z,31.70
2018-09-26T12:32:48.124Z,31.60
2018-09-26T12:35:16.883Z,30.40
2018-09-26T12:37:45.638Z,32.00
2018-09-26T12:40:14.221Z,30.30
2018-09-26T12:42:42.750Z,29.90
2018-09-26T12:45:11.263Z,29.80
2018-09-26T12:47:39.757Z,30.00
2018-09-26T12:50:08.260Z,30.50
2018-09-26T12:52:37.188Z,29.40
2018-09-26T12:55:05.701Z,29.50
2018-09-26T12:57:34.181Z,29.90
2018-09-26T13:00:02.653Z,29.00
2018-09-26T13:02:31.108Z,29.70
2018-09-26T13:04:59.619Z,30.30
2018-09-26T13:07:28.061Z,29.20
2018-09-26T13:09:56.505Z,30.00
2018-09-26T13:12:25.040Z,30.70
2018-09-26T13:14:53.461Z,30.40
2018-09-26T13:17:21.891Z,31.30
2018-09-26T13:19:50.383Z,30.80
2018-09-26T13:22:19.090Z,30.30
2018-09-26T13:24:47.715Z,30.00
2018-09-26T13:27:16.168Z,30.00
2018-09-26T13:29:44.648Z,31.30
2018-09-26T13:32:13.121Z,32.20
2018-09-26T13:34:41.699Z,31.90
2018-09-26T13:37:10.185Z,30.60
2018-09-26T13:39:38.688Z,30.90
2018-09-26T13:42:07.270Z,29.90
2018-09-26T13:44:35.768Z,30.00
2018-09-26T13:47:04.254Z,30.40
2018-09-26T13:49:32.770Z,30.20
2018-09-26T13:52:01.241Z,31.00
2018-09-26T13:54:29.796Z,31.80
2018-09-26T13:56:58.366Z,30.40
2018-09-26T13:59:27.052Z,30.10
2018-09-26T14:01:55.875Z,30.30
2018-09-26T14:04:24.510Z,30.70
2018-09-26T14:06:52.955Z,31.10
2018-09-26T14:09:21.534Z,30.10
2018-09-26T14:11:50.028Z,31.20
2018-09-26T14:14:18.525Z,32.20
2018-09-26T14:16:46.977Z,31.20
2018-09-26T14:19:15.455Z,31.70
2018-09-26T14:21:43.956Z,31.10
2018-09-26T14:24:12.466Z,31.80
2018-09-26T14:26:40.976Z,32.00
2018-09-26T14:29:09.457Z,31.80
2018-09-26T14:31:37.991Z,31.10
2018-09-26T14:34:06.758Z,31.60
2018-09-26T14:36:35.214Z,32.40
2018-09-26T14:39:04.840Z,32.40
2018-09-26T14:41:33.234Z,33.40
2018-09-26T14:44:01.665Z,33.90
2018-09-26T14:46:30.133Z,32.80
2018-09-26T14:48:58.578Z,33.10
2018-09-26T14:51:27.194Z,33.20
2018-09-26T14:53:55.656Z,33.70
2018-09-26T14:56:24.241Z,34.00
2018-09-26T14:58:52.605Z,33.70
2018-09-26T15:01:21.100Z,34.30
2018-09-26T15:03:49.537Z,33.80
2018-09-26T15:06:18.038Z,34.10
2018-09-26T15:08:46.586Z,34.90
2018-09-26T15:11:15.008Z,34.40
2018-09-26T15:13:43.460Z,36.00
2018-09-26T15:16:11.999Z,35.80
2018-09-26T15:18:40.532Z,35.70
2018-09-26T15:21:09.035Z,35.40
2018-09-26T15:23:37.585Z,35.60
2018-09-26T15:26:06.114Z,35.20
2018-09-26T15:28:34.674Z,35.00
2018-09-26T15:31:03.136Z,36.30
2018-09-26T15:33:31.626Z,36.60
2018-09-26T15:36:00.135Z,37.50
2018-09-26T15:38:28.609Z,36.60
2018-09-26T15:40:57.193Z,36.90
2018-09-26T15:43:25.650Z,36.50
2018-09-26T15:45:54.132Z,37.70
2018-09-26T15:48:22.611Z,37.50
2018-09-26T15:50:51.142Z,38.30
2018-09-26T15:53:19.704Z,39.30
2018-09-26T15:55:48.279Z,39.60
2018-09-26T15:58:16.776Z,39.50
2018-09-26T16:00:45.232Z,39.10
2018-09-26T16:03:13.705Z,39.50
2018-09-26T16:05:42.198Z,39.30
2018-09-26T16:08:10.754Z,40.10
2018-09-26T16:10:39.367Z,40.80
2018-09-26T16:13:07.841Z,41.50
2018-09-26T16:15:36.314Z,41.80
2018-09-26T16:18:05.753Z,41.80
2018-09-26T16:20:34.309Z,42.60
2018-09-26T16:23:02.806Z,43.30
2018-09-26T16:25:31.285Z,43.60
2018-09-26T16:28:03.473Z,44.10
2018-09-26T16:30:32.058Z,44.50
2018-09-26T16:33:00.522Z,45.00
2018-09-26T16:35:28.963Z,45.30
2018-09-26T16:37:57.511Z,45.40
2018-09-26T16:40:26.077Z,45.80
2018-09-26T16:42:54.547Z,46.50
2018-09-26T16:45:23.144Z,46.70
2018-09-26T16:47:51.983Z,46.90
2018-09-26T16:50:20.502Z,47.30
2018-09-26T16:52:49.026Z,48.20
2018-09-26T16:55:17.449Z,48.20
2018-09-26T16:57:45.917Z,48.40
2018-09-26T17:00:14.403Z,48.90
2018-09-26T17:02:42.881Z,49.50
2018-09-26T17:05:11.545Z,50.10
2018-09-26T17:07:40.041Z,50.40
2018-09-26T17:10:08.549Z,50.70
2018-09-26T17:12:37.038Z,51.10
2018-09-26T17:15:05.542Z,51.30
2018-09-26T17:17:34.182Z,51.90
2018-09-26T17:20:02.681Z,52.40
2018-09-26T17:22:31.174Z,52.80
2018-09-26T17:24:59.635Z,53.20
2018-09-26T17:27:28.093Z,53.70
2018-09-26T17:29:56.550Z,53.80
2018-09-26T17:32:25.663Z,54.50
2018-09-26T17:34:54.066Z,55.30
2018-09-26T17:37:22.546Z,55.40
2018-09-26T17:39:51.118Z,56.00
2018-09-26T17:42:19.807Z,56.70
2018-09-26T17:44:48.179Z,57.00
2018-09-26T17:47:16.710Z,57.90
2018-09-26T17:49:45.177Z,58.20
2018-09-26T17:52:13.923Z,58.70
2018-09-26T17:54:42.349Z,59.00
2018-09-26T17:57:10.829Z,59.00
2018-09-26T17:59:39.400Z,60.20
2018-09-26T18:02:07.886Z,61.10
2018-09-26T18:04:36.389Z,61.00
2018-09-26T18:07:05.099Z,61.00
2018-09-26T18:09:33.530Z,61.50
2018-09-26T18:12:02.284Z,62.20
2018-09-26T18:14:30.745Z,62.30
2018-09-26T18:16:59.248Z,62.40
2018-09-26T18:19:27.692Z,62.50
2018-09-26T18:21:56.393Z,62.80
2018-09-26T18:24:25.646Z,63.10
2018-09-26T18:26:54.145Z,63.80
2018-09-26T18:29:22.599Z,64.40
2018-09-26T18:31:52.503Z,65.70
2018-09-26T18:34:21.048Z,66.00
2018-09-26T18:36:51.399Z,66.70
2018-09-26T18:39:20.021Z,67.20
2018-09-26T18:41:50.142Z,68.20
2018-09-26T18:44:18.600Z,69.20
2018-09-26T18:46:47.222Z,70.20
2018-09-26T18:49:15.686Z,71.50
2018-09-26T18:51:44.152Z,72.80
2018-09-26T18:54:12.703Z,74.20
2018-09-26T18:56:41.181Z,74.30
2018-09-26T18:59:09.724Z,74.80
2018-09-26T19:01:38.234Z,75.20
2018-09-26T19:04:06.700Z,75.20
2018-09-26T19:06:35.208Z,75.80
2018-09-26T19:09:04.889Z,76.00
2018-09-26T19:11:33.559Z,76.50
2018-09-26T19:14:02.071Z,78.80
2018-09-26T19:16:30.571Z,78.20
2018-09-26T19:19:00.854Z,77.80
2018-09-26T19:21:29.623Z,78.20
2018-09-26T19:23:58.226Z,78.80
2018-09-26T19:26:27.622Z,80.10
2018-09-26T19:28:56.184Z,80.10
2018-09-26T19:31:24.691Z,80.10
2018-09-26T19:33:53.282Z,80.40
2018-09-26T19:36:21.806Z,80.90
2018-09-26T19:38:52.030Z,81.40
2018-09-26T19:41:20.464Z,81.90
2018-09-26T19:43:48.914Z,82.20
2018-09-26T19:46:17.386Z,83.10
2018-09-26T19:48:48.574Z,83.60
2018-09-26T19:51:17.134Z,83.70
2018-09-26T19:53:45.739Z,84.40
2018-09-26T19:56:14.320Z,85.00
2018-09-26T19:58:42.702Z,85.50
2018-09-26T20:01:11.571Z,86.20
2018-09-26T20:03:40.007Z,86.80
2018-09-26T20:06:08.478Z,87.20
2018-09-26T20:08:36.947Z,87.80
2018-09-26T20:11:05.499Z,88.10
2018-09-26T20:13:33.966Z,88.30
2018-09-26T20:16:02.428Z,88.60
2018-09-26T20:18:30.901Z,88.90
2018-09-26T20:20:59.317Z,88.90
2018-09-26T20:23:27.977Z,89.60
2018-09-26T20:25:56.313Z,90.00
2018-09-26T20:28:24.755Z,90.00
2018-09-26T20:30:53.283Z,90.00
2018-09-26T20:33:21.763Z,90.00
2018-09-26T20:35:50.296Z,90.10
2018-09-26T20:38:18.757Z,89.90
2018-09-26T20:40:47.211Z,90.00
2018-09-26T20:43:15.677Z,90.00
2018-09-26T20:45:44.161Z,90.10
2018-09-26T20:48:12.667Z,90.10
2018-09-26T20:50:41.145Z,90.20
2018-09-26T20:53:09.649Z,90.30
2018-09-26T20:55:38.085Z,90.30
2018-09-26T20:58:06.602Z,90.40
2018-09-26T21:00:35.081Z,90.50
2018-09-26T21:03:03.690Z,90.50
2018-09-26T21:05:32.195Z,90.50
2018-09-26T21:08:00.643Z,90.50
2018-09-26T21:10:29.149Z,90.60
2018-09-26T21:12:57.569Z,90.70
2018-09-26T21:15:26.035Z,90.70
2018-09-26T21:17:54.523Z,90.80
2018-09-26T21:20:23.003Z,91.00
2018-09-26T21:22:51.663Z,90.90
2018-09-26T21:25:20.122Z,91.00
2018-09-26T21:27:48.558Z,91.00
2018-09-26T21:30:17.027Z,91.20
2018-09-26T21:32:45.489Z,91.20
2018-09-26T21:35:14.003Z,91.40
2018-09-26T21:37:42.469Z,91.50
2018-09-26T21:40:10.937Z,91.60
2018-09-26T21:42:39.374Z,91.90
2018-09-26T21:45:07.936Z,92.10
2018-09-26T21:47:36.362Z,92.20
2018-09-26T21:50:04.997Z,92.10
2018-09-26T21:52:33.484Z,92.00
2018-09-26T21:55:02.001Z,92.30
2018-09-26T21:57:30.547Z,92.20
2018-09-26T21:59:59.012Z,92.10
2018-09-26T22:02:28.348Z,92.20
2018-09-26T22:04:56.844Z,92.40
2018-09-26T22:07:25.286Z,92.60
2018-09-26T22:09:53.760Z,92.80
2018-09-26T22:12:22.211Z,93.00
2018-09-26T22:14:50.779Z,93.20
2018-09-26T22:17:19.214Z,93.10
2018-09-26T22:19:47.625Z,93.20
2018-09-26T22:22:16.101Z,93.20
2018-09-26T22:24:44.534Z,93.10
2018-09-26T22:27:13.205Z,93.10
2018-09-26T22:29:41.660Z,93.00
2018-09-26T22:32:10.139Z,93.10
2018-09-26T22:34:38.565Z,93.30
2018-09-26T22:37:07.036Z,93.40
2018-09-26T22:39:35.475Z,93.60
2018-09-26T22:42:03.992Z,93.60
2018-09-26T22:44:32.440Z,93.90
2018-09-26T22:47:00.918Z,94.00
2018-09-26T22:49:29.350Z,94.20
2018-09-26T22:51:57.810Z,94.30
2018-09-26T22:54:26.271Z,94.40
2018-09-26T22:56:54.753Z,94.60
2018-09-26T22:59:23.316Z,94.40
2018-09-26T23:01:51.778Z,94.40
2018-09-26T23:04:20.227Z,94.40
2018-09-26T23:06:48.843Z,94.40
2018-09-26T23:09:17.293Z,94.30
2018-09-26T23:11:45.793Z,94.40
2018-09-26T23:14:14.301Z,94.50
2018-09-26T23:16:42.789Z,94.50
2018-09-26T23:19:11.217Z,94.50
2018-09-26T23:21:39.750Z,94.70
2018-09-26T23:24:08.224Z,94.70
2018-09-26T23:26:36.695Z,95.10
2018-09-26T23:29:05.161Z,94.80
2018-09-26T23:31:33.630Z,95.20
2018-09-26T23:34:02.075Z,95.40
2018-09-26T23:36:30.570Z,95.50
2018-09-26T23:38:58.999Z,95.70
2018-09-26T23:41:27.485Z,95.80
2018-09-26T23:43:55.952Z,95.80
2018-09-26T23:46:24.435Z,95.70
2018-09-26T23:48:52.862Z,95.60
2018-09-26T23:51:21.454Z,95.70
2018-09-26T23:53:50.069Z,95.70
2018-09-26T23:56:18.524Z,95.80
2018-09-26T23:58:46.948Z,95.90
